sensor_id;sensor_type;location;lat;lon;timestamp;P1;durP1;ratioP1;P2;durP2;ratioP2
23768;SDS011;12064;50.890;5.424;2023-07-24T00:07:51;1.90;;;1.80;;
23768;SDS011;12064;50.890;5.424;2023-07-24T00:16:42;1.73;;;1.63;;
23768;SDS011;12064;50.890;5.424;2023-07-24T00:25:33;1.75;;;1.65;;
23768;SDS011;12064;50.890;5.424;2023-07-24T00:34:23;1.73;;;1.50;;
23768;SDS011;12064;50.890;5.424;2023-07-24T00:43:14;1.70;;;1.60;;
23768;SDS011;12064;50.890;5.424;2023-07-24T00:52:05;1.77;;;1.67;;
23768;SDS011;12064;50.890;5.424;2023-07-24T01:00:56;1.70;;;1.60;;
23768;SDS011;12064;50.890;5.424;2023-07-24T01:09:47;1.63;;;1.52;;
23768;SDS011;12064;50.890;5.424;2023-07-24T01:18:38;1.70;;;1.60;;
23768;SDS011;12064;50.890;5.424;2023-07-24T01:27:29;2.25;;;1.42;;
23768;SDS011;12064;50.890;5.424;2023-07-24T01:36:23;1.60;;;1.50;;
23768;SDS011;12064;50.890;5.424;2023-07-24T01:45:14;2.55;;;1.73;;
23768;SDS011;12064;50.890;5.424;2023-07-24T01:54:04;1.70;;;1.60;;
23768;SDS011;12064;50.890;5.424;2023-07-24T02:02:55;1.57;;;1.47;;
23768;SDS011;12064;50.890;5.424;2023-07-24T02:11:46;1.60;;;1.50;;
23768;SDS011;12064;50.890;5.424;2023-07-24T02:20:36;1.77;;;1.67;;
23768;SDS011;12064;50.890;5.424;2023-07-24T02:29:27;1.67;;;1.57;;
23768;SDS011;12064;50.890;5.424;2023-07-24T02:38:18;1.70;;;1.60;;
23768;SDS011;12064;50.890;5.424;2023-07-24T02:47:09;1.67;;;1.58;;
23768;SDS011;12064;50.890;5.424;2023-07-24T02:56:00;1.67;;;1.58;;
23768;SDS011;12064;50.890;5.424;2023-07-24T03:04:52;1.50;;;1.40;;
23768;SDS011;12064;50.890;5.424;2023-07-24T03:13:43;1.98;;;1.88;;
23768;SDS011;12064;50.890;5.424;2023-07-24T03:22:33;1.70;;;1.60;;
23768;SDS011;12064;50.890;5.424;2023-07-24T03:31:24;1.73;;;1.63;;
23768;SDS011;12064;50.890;5.424;2023-07-24T03:40:15;1.47;;;1.37;;
23768;SDS011;12064;50.890;5.424;2023-07-24T03:49:05;1.67;;;1.58;;
23768;SDS011;12064;50.890;5.424;2023-07-24T03:57:56;1.60;;;1.50;;
23768;SDS011;12064;50.890;5.424;2023-07-24T04:06:47;1.80;;;1.70;;
23768;SDS011;12064;50.890;5.424;2023-07-24T04:15:37;1.88;;;1.50;;
23768;SDS011;12064;50.890;5.424;2023-07-24T04:24:29;1.27;;;1.17;;
23768;SDS011;12064;50.890;5.424;2023-07-24T04:33:20;1.60;;;1.50;;
23768;SDS011;12064;50.890;5.424;2023-07-24T04:42:10;1.60;;;1.50;;
23768;SDS011;12064;50.890;5.424;2023-07-24T04:51:01;1.50;;;1.40;;
23768;SDS011;12064;50.890;5.424;2023-07-24T04:59:52;1.70;;;1.60;;
23768;SDS011;12064;50.890;5.424;2023-07-24T05:08:42;1.83;;;1.30;;
23768;SDS011;12064;50.890;5.424;2023-07-24T05:17:33;1.50;;;1.40;;
23768;SDS011;12064;50.890;5.424;2023-07-24T05:26:24;1.60;;;1.50;;
23768;SDS011;12064;50.890;5.424;2023-07-24T05:35:15;1.50;;;1.40;;
23768;SDS011;12064;50.890;5.424;2023-07-24T05:44:05;1.52;;;1.42;;
23768;SDS011;12064;50.890;5.424;2023-07-24T05:52:56;1.40;;;1.30;;
23768;SDS011;12064;50.890;5.424;2023-07-24T06:01:47;1.60;;;1.50;;
23768;SDS011;12064;50.890;5.424;2023-07-24T06:10:37;1.40;;;1.30;;
23768;SDS011;12064;50.890;5.424;2023-07-24T06:19:28;1.40;;;1.30;;
23768;SDS011;12064;50.890;5.424;2023-07-24T06:28:19;1.60;;;1.50;;
23768;SDS011;12064;50.890;5.424;2023-07-24T06:37:09;1.53;;;1.43;;
23768;SDS011;12064;50.890;5.424;2023-07-24T06:46:00;1.70;;;1.60;;
23768;SDS011;12064;50.890;5.424;2023-07-24T06:54:51;1.40;;;1.30;;
23768;SDS011;12064;50.890;5.424;2023-07-24T07:03:41;1.80;;;1.70;;
23768;SDS011;12064;50.890;5.424;2023-07-24T07:12:32;3.77;;;2.10;;
23768;SDS011;12064;50.890;5.424;2023-07-24T07:21:23;2.77;;;2.20;;
23768;SDS011;12064;50.890;5.424;2023-07-24T07:30:13;2.58;;;1.80;;
23768;SDS011;12064;50.890;5.424;2023-07-24T07:39:04;2.17;;;1.30;;
23768;SDS011;12064;50.890;5.424;2023-07-24T07:47:55;1.00;;;0.90;;
23768;SDS011;12064;50.890;5.424;2023-07-24T07:56:46;1.17;;;1.07;;
23768;SDS011;12064;50.890;5.424;2023-07-24T08:05:36;2.33;;;1.48;;
23768;SDS011;12064;50.890;5.424;2023-07-24T08:14:28;1.92;;;1.40;;
23768;SDS011;12064;50.890;5.424;2023-07-24T08:23:20;1.95;;;1.42;;
23768;SDS011;12064;50.890;5.424;2023-07-24T08:32:11;1.80;;;1.70;;
23768;SDS011;12064;50.890;5.424;2023-07-24T08:41:12;3.60;;;1.60;;
23768;SDS011;12064;50.890;5.424;2023-07-24T08:50:04;2.75;;;1.90;;
23768;SDS011;12064;50.890;5.424;2023-07-24T08:58:55;2.42;;;1.63;;
23768;SDS011;12064;50.890;5.424;2023-07-24T09:07:46;2.08;;;1.90;;
23768;SDS011;12064;50.890;5.424;2023-07-24T09:16:38;3.03;;;1.98;;
23768;SDS011;12064;50.890;5.424;2023-07-24T09:25:32;2.08;;;1.90;;
23768;SDS011;12064;50.890;5.424;2023-07-24T09:34:23;3.20;;;2.15;;
23768;SDS011;12064;50.890;5.424;2023-07-24T09:52:12;4.05;;;2.00;;
23768;SDS011;12064;50.890;5.424;2023-07-24T10:01:08;3.10;;;2.10;;
23768;SDS011;12064;50.890;5.424;2023-07-24T10:09:59;2.17;;;1.98;;
23768;SDS011;12064;50.890;5.424;2023-07-24T10:18:52;2.95;;;2.15;;
23768;SDS011;12064;50.890;5.424;2023-07-24T10:27:42;4.05;;;2.05;;
23768;SDS011;12064;50.890;5.424;2023-07-24T10:36:34;2.20;;;2.00;;
23768;SDS011;12064;50.890;5.424;2023-07-24T10:45:26;2.58;;;1.75;;
23768;SDS011;12064;50.890;5.424;2023-07-24T10:54:20;2.20;;;2.00;;
23768;SDS011;12064;50.890;5.424;2023-07-24T11:03:12;2.25;;;2.00;;
23768;SDS011;12064;50.890;5.424;2023-07-24T11:12:10;2.10;;;1.85;;
23768;SDS011;12064;50.890;5.424;2023-07-24T11:21:01;2.23;;;2.03;;
23768;SDS011;12064;50.890;5.424;2023-07-24T11:29:51;1.93;;;1.77;;
23768;SDS011;12064;50.890;5.424;2023-07-24T11:38:44;2.75;;;1.70;;
23768;SDS011;12064;50.890;5.424;2023-07-24T11:47:48;1.67;;;1.58;;
23768;SDS011;12064;50.890;5.424;2023-07-24T11:56:39;1.50;;;1.40;;
23768;SDS011;12064;50.890;5.424;2023-07-24T12:05:37;1.77;;;1.60;;
23768;SDS011;12064;50.890;5.424;2023-07-24T12:14:28;1.70;;;1.50;;
23768;SDS011;12064;50.890;5.424;2023-07-24T12:23:19;1.70;;;1.60;;
23768;SDS011;12064;50.890;5.424;2023-07-24T12:32:10;1.73;;;1.63;;
23768;SDS011;12064;50.890;5.424;2023-07-24T12:41:00;1.60;;;1.50;;
23768;SDS011;12064;50.890;5.424;2023-07-24T12:49:51;1.60;;;1.50;;
23768;SDS011;12064;50.890;5.424;2023-07-24T12:58:45;1.63;;;1.50;;
23768;SDS011;12064;50.890;5.424;2023-07-24T13:07:36;1.70;;;1.60;;
23768;SDS011;12064;50.890;5.424;2023-07-24T13:16:27;1.67;;;1.58;;
23768;SDS011;12064;50.890;5.424;2023-07-24T13:25:17;1.40;;;1.30;;
23768;SDS011;12064;50.890;5.424;2023-07-24T13:34:08;1.33;;;1.23;;
23768;SDS011;12064;50.890;5.424;2023-07-24T13:42:59;1.70;;;1.42;;
23768;SDS011;12064;50.890;5.424;2023-07-24T13:51:49;4.27;;;1.60;;
23768;SDS011;12064;50.890;5.424;2023-07-24T14:00:40;1.90;;;1.80;;
23768;SDS011;12064;50.890;5.424;2023-07-24T14:09:31;2.43;;;2.00;;
23768;SDS011;12064;50.890;5.424;2023-07-24T14:18:22;2.30;;;2.10;;
23768;SDS011;12064;50.890;5.424;2023-07-24T14:27:13;3.90;;;2.33;;
23768;SDS011;12064;50.890;5.424;2023-07-24T14:36:04;3.67;;;2.30;;
23768;SDS011;12064;50.890;5.424;2023-07-24T14:44:54;2.75;;;2.40;;
23768;SDS011;12064;50.890;5.424;2023-07-24T14:53:45;2.63;;;2.20;;
23768;SDS011;12064;50.890;5.424;2023-07-24T15:02:36;3.53;;;2.40;;
23768;SDS011;12064;50.890;5.424;2023-07-24T15:11:26;3.97;;;2.50;;
23768;SDS011;12064;50.890;5.424;2023-07-24T15:20:17;5.10;;;2.50;;
23768;SDS011;12064;50.890;5.424;2023-07-24T15:29:08;2.75;;;2.45;;
23768;SDS011;12064;50.890;5.424;2023-07-24T15:37:58;3.77;;;2.90;;
23768;SDS011;12064;50.890;5.424;2023-07-24T15:46:51;2.60;;;2.40;;
23768;SDS011;12064;50.890;5.424;2023-07-24T15:55:42;2.87;;;2.67;;
23768;SDS011;12064;50.890;5.424;2023-07-24T16:04:32;3.13;;;2.40;;
23768;SDS011;12064;50.890;5.424;2023-07-24T16:13:23;2.90;;;2.22;;
23768;SDS011;12064;50.890;5.424;2023-07-24T16:22:14;2.90;;;2.28;;
23768;SDS011;12064;50.890;5.424;2023-07-24T16:31:04;5.18;;;2.70;;
23768;SDS011;12064;50.890;5.424;2023-07-24T16:39:55;3.30;;;2.50;;
23768;SDS011;12064;50.890;5.424;2023-07-24T16:48:47;3.60;;;2.60;;
23768;SDS011;12064;50.890;5.424;2023-07-24T16:57:38;3.20;;;2.35;;
23768;SDS011;12064;50.890;5.424;2023-07-24T17:06:28;3.80;;;2.40;;
23768;SDS011;12064;50.890;5.424;2023-07-24T17:15:20;3.22;;;2.40;;
23768;SDS011;12064;50.890;5.424;2023-07-24T17:24:11;3.20;;;2.50;;
23768;SDS011;12064;50.890;5.424;2023-07-24T17:33:01;2.70;;;2.50;;
23768;SDS011;12064;50.890;5.424;2023-07-24T17:41:52;3.00;;;2.63;;
23768;SDS011;12064;50.890;5.424;2023-07-24T17:50:43;2.70;;;2.20;;
23768;SDS011;12064;50.890;5.424;2023-07-24T17:59:35;2.53;;;2.33;;
23768;SDS011;12064;50.890;5.424;2023-07-24T18:08:26;3.35;;;2.53;;
23768;SDS011;12064;50.890;5.424;2023-07-24T18:17:16;2.83;;;2.33;;
23768;SDS011;12064;50.890;5.424;2023-07-24T18:26:07;4.03;;;2.10;;
23768;SDS011;12064;50.890;5.424;2023-07-24T18:34:59;3.63;;;2.50;;
23768;SDS011;12064;50.890;5.424;2023-07-24T18:43:50;4.82;;;2.42;;
23768;SDS011;12064;50.890;5.424;2023-07-24T18:52:41;3.70;;;2.50;;
23768;SDS011;12064;50.890;5.424;2023-07-24T19:01:31;4.00;;;2.50;;
23768;SDS011;12064;50.890;5.424;2023-07-24T19:10:22;4.68;;;2.47;;
23768;SDS011;12064;50.890;5.424;2023-07-24T19:19:13;3.30;;;2.40;;
23768;SDS011;12064;50.890;5.424;2023-07-24T19:28:03;4.17;;;1.97;;
23768;SDS011;12064;50.890;5.424;2023-07-24T19:36:54;2.55;;;1.50;;
23768;SDS011;12064;50.890;5.424;2023-07-24T19:45:45;2.13;;;1.53;;
23768;SDS011;12064;50.890;5.424;2023-07-24T19:54:35;2.20;;;1.40;;
23768;SDS011;12064;50.890;5.424;2023-07-24T20:03:26;1.75;;;1.00;;
23768;SDS011;12064;50.890;5.424;2023-07-24T20:12:17;2.22;;;1.33;;
23768;SDS011;12064;50.890;5.424;2023-07-24T20:21:08;3.08;;;1.30;;
23768;SDS011;12064;50.890;5.424;2023-07-24T20:29:59;1.80;;;1.20;;
23768;SDS011;12064;50.890;5.424;2023-07-24T20:38:50;4.03;;;1.10;;
23768;SDS011;12064;50.890;5.424;2023-07-24T20:47:41;1.38;;;1.20;;
23768;SDS011;12064;50.890;5.424;2023-07-24T20:56:31;1.50;;;1.23;;
23768;SDS011;12064;50.890;5.424;2023-07-24T21:05:23;2.65;;;1.30;;
23768;SDS011;12064;50.890;5.424;2023-07-24T21:14:14;1.53;;;1.37;;
23768;SDS011;12064;50.890;5.424;2023-07-24T21:23:04;1.83;;;1.20;;
23768;SDS011;12064;50.890;5.424;2023-07-24T21:31:55;1.23;;;1.10;;
23768;SDS011;12064;50.890;5.424;2023-07-24T21:40:46;1.17;;;1.08;;
23768;SDS011;12064;50.890;5.424;2023-07-24T21:49:37;1.30;;;1.10;;
23768;SDS011;12064;50.890;5.424;2023-07-24T21:58:27;1.40;;;1.03;;
23768;SDS011;12064;50.890;5.424;2023-07-24T22:07:19;1.17;;;0.88;;
23768;SDS011;12064;50.890;5.424;2023-07-24T22:16:10;1.30;;;1.10;;
23768;SDS011;12064;50.890;5.424;2023-07-24T22:25:01;0.98;;;0.98;;
23768;SDS011;12064;50.890;5.424;2023-07-24T22:33:52;1.00;;;0.90;;
23768;SDS011;12064;50.890;5.424;2023-07-24T22:42:43;1.25;;;1.13;;
23768;SDS011;12064;50.890;5.424;2023-07-24T22:51:33;1.07;;;0.97;;
23768;SDS011;12064;50.890;5.424;2023-07-24T23:00:24;0.95;;;0.90;;
23768;SDS011;12064;50.890;5.424;2023-07-24T23:09:14;1.10;;;1.00;;
23768;SDS011;12064;50.890;5.424;2023-07-24T23:18:05;1.23;;;1.13;;
23768;SDS011;12064;50.890;5.424;2023-07-24T23:26:56;1.05;;;0.95;;
23768;SDS011;12064;50.890;5.424;2023-07-24T23:35:46;1.10;;;0.90;;
23768;SDS011;12064;50.890;5.424;2023-07-24T23:44:37;1.70;;;0.93;;
23768;SDS011;12064;50.890;5.424;2023-07-24T23:53:29;1.47;;;0.93;;
